Time;durP1;ratioP1;P1;durP2;ratioP2;P2;SDS_P1;SDS_P2;PMS_P1;PMS_P2;Temp;Humidity;BMP_temperature;BMP_pressure;BME280_temperature;BME280_humidity;BME280_pressure;Samples;Min_cycle;Max_cycle;Signal;HPM_P1;HPM_P2
2021/01/30 00:00:48;;;;;;;0.40;0.40;;;;;;;;;;5131411;27;20118;-67
2021/01/30 00:03:15;;;;;;;0.60;0.60;;;;;;;;;;5130849;27;20029;-67
2021/01/30 00:05:41;;;;;;;0.65;0.43;;;;;;;;;;5130925;27;20132;-67
2021/01/30 00:08:07;;;;;;;1.45;0.80;;;;;;;;;;5130427;27;20058;-67
2021/01/30 00:10:34;;;;;;;0.70;0.70;;;;;;;;;;5131065;27;20027;-67
2021/01/30 00:13:00;;;;;;;0.52;0.52;;;;;;;;;;5128277;27;20067;-67
2021/01/30 00:15:28;;;;;;;0.68;0.65;;;;;;;;;;5130660;27;20110;-67
2021/01/30 00:17:55;;;;;;;0.77;0.75;;;;;;;;;;5130570;27;20443;-67
2021/01/30 00:20:22;;;;;;;1.25;1.00;;;;;;;;;;5129998;27;20460;-67
2021/01/30 00:22:50;;;;;;;0.80;0.68;;;;;;;;;;5131120;27;20027;-67
2021/01/30 00:25:16;;;;;;;0.98;0.98;;;;;;;;;;5130035;27;20038;-67
2021/01/30 00:27:42;;;;;;;1.38;0.75;;;;;;;;;;5130618;27;20019;-67
2021/01/30 00:30:14;;;;;;;0.40;0.40;;;;;;;;;;5129525;28;20027;-67
2021/01/30 00:32:40;;;;;;;1.38;0.93;;;;;;;;;;5130882;28;20043;-67
2021/01/30 00:35:06;;;;;;;2.28;0.75;;;;;;;;;;5130739;28;20024;-67
2021/01/30 00:37:32;;;;;;;1.40;0.98;;;;;;;;;;5112268;28;20027;-67
2021/01/30 00:39:59;;;;;;;1.65;0.70;;;;;;;;;;5129461;28;20373;-67
2021/01/30 00:42:26;;;;;;;1.17;0.93;;;;;;;;;;5130741;28;20083;-67
2021/01/30 00:44:53;;;;;;;1.08;0.70;;;;;;;;;;5131192;28;20050;-67
2021/01/30 00:47:19;;;;;;;1.15;0.80;;;;;;;;;;5130115;28;20036;-67
2021/01/30 00:49:45;;;;;;;1.38;1.27;;;;;;;;;;5130322;28;20051;-67
2021/01/30 00:52:15;;;;;;;1.98;1.80;;;;;;;;;;5129996;28;20057;-67
2021/01/30 00:54:41;;;;;;;0.45;0.43;;;;;;;;;;5130522;28;20508;-67
2021/01/30 00:57:07;;;;;;;0.68;0.68;;;;;;;;;;5129984;28;20027;-67
2021/01/30 00:59:33;;;;;;;0.88;0.70;;;;;;;;;;5130488;28;20572;-67
2021/01/30 01:02:00;;;;;;;1.58;1.00;;;;;;;;;;5130204;28;20109;-67
2021/01/30 01:04:26;;;;;;;3.10;0.75;;;;;;;;;;5130737;28;20019;-67
2021/01/30 01:06:52;;;;;;;1.40;1.00;;;;;;;;;;5130885;27;20482;-67
2021/01/30 01:09:19;;;;;;;1.15;1.00;;;;;;;;;;5134333;27;20035;-67
2021/01/30 01:11:47;;;;;;;0.35;0.35;;;;;;;;;;5133987;27;20081;-67
2021/01/30 01:14:13;;;;;;;0.82;0.82;;;;;;;;;;5133816;27;20434;-67
2021/01/30 01:16:40;;;;;;;1.20;0.90;;;;;;;;;;5134756;27;20053;-67
2021/01/30 01:19:06;;;;;;;0.73;0.70;;;;;;;;;;5133457;27;20068;-67
2021/01/30 01:21:33;;;;;;;0.80;0.80;;;;;;;;;;5134069;27;20057;-67
2021/01/30 01:23:59;;;;;;;1.45;1.20;;;;;;;;;;5134070;27;20089;-67
2021/01/30 01:26:25;;;;;;;1.08;0.80;;;;;;;;;;5134360;27;20034;-67
2021/01/30 01:28:51;;;;;;;1.55;1.02;;;;;;;;;;5134169;27;20049;-67
2021/01/30 01:31:19;;;;;;;1.77;0.95;;;;;;;;;;5133429;27;20031;-67
2021/01/30 01:33:45;;;;;;;3.25;1.02;;;;;;;;;;5134521;27;20031;-67
2021/01/30 01:36:15;;;;;;;1.00;0.80;;;;;;;;;;5133245;27;20504;-67
2021/01/30 01:38:41;;;;;;;1.50;1.00;;;;;;;;;;5133733;27;20023;-67
2021/01/30 01:41:07;;;;;;;0.82;0.75;;;;;;;;;;5133201;27;20053;-67
2021/01/30 01:43:34;;;;;;;2.28;0.75;;;;;;;;;;5134215;27;20030;-67
2021/01/30 01:46:15;;;;;;;0.95;0.63;;;;;;;;;;5133560;27;20027;-67
2021/01/30 01:48:43;;;;;;;0.88;0.73;;;;;;;;;;5133814;27;20457;-67
2021/01/30 01:51:13;;;;;;;2.05;1.65;;;;;;;;;;5133081;27;20026;-67
2021/01/30 01:53:41;;;;;;;0.75;0.50;;;;;;;;;;5134017;27;20196;-67
2021/01/30 01:56:09;;;;;;;2.00;0.90;;;;;;;;;;5133434;27;20026;-67
2021/01/30 01:58:37;;;;;;;0.90;0.68;;;;;;;;;;5133714;27;20019;-67
2021/01/30 02:01:03;;;;;;;1.40;0.73;;;;;;;;;;5133102;27;20023;-67
2021/01/30 02:03:31;;;;;;;0.65;0.60;;;;;;;;;;5134000;27;20023;-67
2021/01/30 02:05:58;;;;;;;2.03;0.60;;;;;;;;;;5132723;27;20092;-67
2021/01/30 02:08:25;;;;;;;0.68;0.68;;;;;;;;;;5133244;27;20050;-67
2021/01/30 02:10:52;;;;;;;0.47;0.45;;;;;;;;;;5133325;27;20106;-67
2021/01/30 02:13:27;;;;;;;0.47;0.40;;;;;;;;;;5132786;27;20126;-67
2021/01/30 02:15:55;;;;;;;0.70;0.70;;;;;;;;;;5133362;27;20102;-67
2021/01/30 02:18:37;;;;;;;0.45;0.43;;;;;;;;;;5131847;27;20066;-67
2021/01/30 02:21:27;;;;;;;0.73;0.73;;;;;;;;;;5132492;27;20451;-67
2021/01/30 02:24:12;;;;;;;0.73;0.47;;;;;;;;;;5120312;27;20034;-67
2021/01/30 02:26:38;;;;;;;1.27;1.00;;;;;;;;;;5133119;27;20067;-67
2021/01/30 02:29:22;;;;;;;0.40;0.40;;;;;;;;;;5132494;27;20073;-67
2021/01/30 02:32:03;;;;;;;0.50;0.50;;;;;;;;;;5133211;27;20140;-67
2021/01/30 02:34:48;;;;;;;1.02;0.60;;;;;;;;;;5133204;27;20072;-67
2021/01/30 02:37:20;;;;;;;0.63;0.50;;;;;;;;;;5131829;27;20031;-67
2021/01/30 02:40:07;;;;;;;0.45;0.45;;;;;;;;;;5132525;27;20031;-67
2021/01/30 02:42:42;;;;;;;0.30;0.30;;;;;;;;;;5132937;27;20019;-67
2021/01/30 02:45:17;;;;;;;0.70;0.57;;;;;;;;;;5132323;27;20114;-67
2021/01/30 02:47:45;;;;;;;0.82;0.40;;;;;;;;;;5132715;27;20042;-67
2021/01/30 02:50:14;;;;;;;1.67;0.77;;;;;;;;;;5131821;27;20453;-67
2021/01/30 02:52:40;;;;;;;1.17;0.47;;;;;;;;;;5132377;27;20511;-67
2021/01/30 02:55:07;;;;;;;1.88;0.85;;;;;;;;;;5132171;27;20042;-67
2021/01/30 02:57:36;;;;;;;1.20;0.50;;;;;;;;;;5132732;27;20050;-67
2021/01/30 03:00:07;;;;;;;0.85;0.45;;;;;;;;;;5131440;27;20042;-67
2021/01/30 03:02:33;;;;;;;0.32;0.32;;;;;;;;;;5132519;27;20405;-67
2021/01/30 03:05:00;;;;;;;0.30;0.30;;;;;;;;;;5131824;27;20049;-67
2021/01/30 03:07:41;;;;;;;0.70;0.57;;;;;;;;;;5131922;27;20020;-67
2021/01/30 03:10:13;;;;;;;0.55;0.52;;;;;;;;;;5131516;27;20473;-67
2021/01/30 03:12:58;;;;;;;0.40;0.40;;;;;;;;;;5132685;27;20512;-67
2021/01/30 03:15:32;;;;;;;0.30;0.30;;;;;;;;;;5132120;27;20031;-67
2021/01/30 03:17:59;;;;;;;0.73;0.57;;;;;;;;;;5131654;27;20031;-67
2021/01/30 03:20:27;;;;;;;0.73;0.40;;;;;;;;;;5132000;27;20397;-67
2021/01/30 03:22:54;;;;;;;0.73;0.60;;;;;;;;;;5132060;27;20023;-67
2021/01/30 03:25:21;;;;;;;1.05;0.55;;;;;;;;;;5131738;27;20499;-67
2021/01/30 03:27:48;;;;;;;0.45;0.40;;;;;;;;;;5131739;27;20038;-67
2021/01/30 03:30:15;;;;;;;1.70;0.40;;;;;;;;;;5131024;27;20454;-67
2021/01/30 03:32:42;;;;;;;0.57;0.55;;;;;;;;;;5132107;27;20038;-67
2021/01/30 03:35:10;;;;;;;0.95;0.40;;;;;;;;;;5131371;27;20039;-67
2021/01/30 03:37:36;;;;;;;0.43;0.43;;;;;;;;;;5131426;27;20050;-67
2021/01/30 03:40:04;;;;;;;0.50;0.50;;;;;;;;;;5130451;27;20068;-67
2021/01/30 03:42:30;;;;;;;0.43;0.43;;;;;;;;;;5131619;27;20026;-67
2021/01/30 03:44:56;;;;;;;0.57;0.47;;;;;;;;;;5131452;27;20080;-67
2021/01/30 03:47:22;;;;;;;0.60;0.57;;;;;;;;;;5131497;27;20058;-67
2021/01/30 03:49:49;;;;;;;0.35;0.35;;;;;;;;;;5131252;27;20546;-67
2021/01/30 03:52:15;;;;;;;2.33;0.57;;;;;;;;;;5130793;27;20039;-67
2021/01/30 03:54:41;;;;;;;1.17;0.38;;;;;;;;;;5131759;27;20027;-67
2021/01/30 03:57:07;;;;;;;0.30;0.30;;;;;;;;;;5130759;27;20028;-67
2021/01/30 03:59:33;;;;;;;0.32;0.28;;;;;;;;;;5131262;27;20027;-67
2021/01/30 04:02:00;;;;;;;0.70;0.70;;;;;;;;;;5130843;27;20505;-67
2021/01/30 04:04:26;;;;;;;2.03;0.32;;;;;;;;;;5131458;27;20105;-67
2021/01/30 04:06:54;;;;;;;0.55;0.40;;;;;;;;;;5130757;27;20045;-67
2021/01/30 04:09:21;;;;;;;1.08;0.57;;;;;;;;;;5130346;27;20580;-67
2021/01/30 04:11:47;;;;;;;0.57;0.40;;;;;;;;;;5131086;27;20066;-67
2021/01/30 04:14:13;;;;;;;0.32;0.32;;;;;;;;;;5129245;27;20442;-67
2021/01/30 04:16:40;;;;;;;0.68;0.40;;;;;;;;;;5130526;27;20472;-67
2021/01/30 04:19:06;;;;;;;0.40;0.38;;;;;;;;;;5130352;27;20546;-67
2021/01/30 04:21:32;;;;;;;0.32;0.30;;;;;;;;;;5130935;27;20084;-67
2021/01/30 04:23:58;;;;;;;0.95;0.30;;;;;;;;;;5130984;27;20464;-67
2021/01/30 04:26:24;;;;;;;0.32;0.20;;;;;;;;;;5131129;27;20027;-67
2021/01/30 04:28:51;;;;;;;0.47;0.30;;;;;;;;;;5130679;27;20031;-67
2021/01/30 04:31:17;;;;;;;1.02;0.50;;;;;;;;;;5130003;27;20038;-67
2021/01/30 04:33:45;;;;;;;0.80;0.68;;;;;;;;;;5131224;28;20126;-67
2021/01/30 04:36:11;;;;;;;1.08;0.80;;;;;;;;;;5129836;28;20042;-67
2021/01/30 04:38:37;;;;;;;0.55;0.40;;;;;;;;;;5130657;28;20477;-67
2021/01/30 04:41:09;;;;;;;1.58;0.50;;;;;;;;;;5129862;27;20102;-67
2021/01/30 04:43:41;;;;;;;0.80;0.50;;;;;;;;;;5134956;27;20161;-67
2021/01/30 04:46:26;;;;;;;2.25;0.70;;;;;;;;;;5114362;28;20102;-67
2021/01/30 04:48:52;;;;;;;0.60;0.45;;;;;;;;;;5114231;28;20028;-67
2021/01/30 04:51:22;;;;;;;0.60;0.40;;;;;;;;;;5113822;28;20058;-67
2021/01/30 04:54:06;;;;;;;0.40;0.30;;;;;;;;;;5114569;28;20039;-67
2021/01/30 04:56:51;;;;;;;0.40;0.30;;;;;;;;;;5114341;28;20039;-67
2021/01/30 04:59:20;;;;;;;0.13;0.13;;;;;;;;;;5113346;28;20032;-67
2021/01/30 05:02:01;;;;;;;1.23;0.30;;;;;;;;;;5114126;28;20480;-67
2021/01/30 05:04:32;;;;;;;1.13;0.50;;;;;;;;;;5114331;28;20027;-67
2021/01/30 05:07:02;;;;;;;2.30;0.57;;;;;;;;;;5093367;28;20040;-67
2021/01/30 05:09:32;;;;;;;0.22;0.22;;;;;;;;;;5093539;28;20033;-67
2021/01/30 05:12:14;;;;;;;0.43;0.32;;;;;;;;;;5093077;28;20036;-67
2021/01/30 05:14:51;;;;;;;0.28;0.28;;;;;;;;;;5093927;28;20478;-67
2021/01/30 05:17:21;;;;;;;1.60;0.35;;;;;;;;;;5108147;28;20039;-67
2021/01/30 05:19:51;;;;;;;0.95;0.60;;;;;;;;;;5113756;28;20039;-67
2021/01/30 05:22:18;;;;;;;0.47;0.47;;;;;;;;;;5113619;28;20463;-67
2021/01/30 05:24:44;;;;;;;0.47;0.20;;;;;;;;;;5114212;28;20481;-67
2021/01/30 05:27:32;;;;;;;0.50;0.40;;;;;;;;;;5113416;28;20020;-67
2021/01/30 05:30:18;;;;;;;0.50;0.30;;;;;;;;;;5112987;28;20030;-67
2021/01/30 05:32:44;;;;;;;0.30;0.30;;;;;;;;;;5090646;28;20056;-67
2021/01/30 05:35:17;;;;;;;0.20;0.20;;;;;;;;;;5113367;28;20072;-67
2021/01/30 05:37:47;;;;;;;0.47;0.30;;;;;;;;;;5113490;28;20118;-67
2021/01/30 05:40:32;;;;;;;0.38;0.30;;;;;;;;;;5112909;28;20097;-67
2021/01/30 05:43:01;;;;;;;1.17;0.17;;;;;;;;;;5113265;28;20034;-67
2021/01/30 05:45:42;;;;;;;0.40;0.20;;;;;;;;;;5113792;28;20028;-67
2021/01/30 05:48:16;;;;;;;0.40;0.40;;;;;;;;;;5112775;28;20107;-67
2021/01/30 05:50:45;;;;;;;0.40;0.40;;;;;;;;;;5113199;28;20051;-67
2021/01/30 05:53:13;;;;;;;0.60;0.30;;;;;;;;;;5111677;28;20032;-67
2021/01/30 05:55:40;;;;;;;0.15;0.15;;;;;;;;;;5113007;28;20033;-67
2021/01/30 05:58:10;;;;;;;0.57;0.40;;;;;;;;;;5112411;28;20106;-67
2021/01/30 06:00:37;;;;;;;0.82;0.60;;;;;;;;;;5112803;28;20542;-67
2021/01/30 06:03:09;;;;;;;3.20;0.73;;;;;;;;;;5112552;28;20019;-67
2021/01/30 06:05:37;;;;;;;0.20;0.20;;;;;;;;;;5121887;27;20043;-67
2021/01/30 06:08:21;;;;;;;0.32;0.30;;;;;;;;;;5132704;27;20024;-67
2021/01/30 06:10:49;;;;;;;0.40;0.40;;;;;;;;;;5133379;27;20027;-67
2021/01/30 06:13:21;;;;;;;0.32;0.32;;;;;;;;;;5132806;27;20031;-67
2021/01/30 06:15:48;;;;;;;0.35;0.22;;;;;;;;;;5133526;27;20070;-67
2021/01/30 06:18:33;;;;;;;1.10;0.40;;;;;;;;;;5132609;27;20521;-67
2021/01/30 06:21:02;;;;;;;0.47;0.40;;;;;;;;;;5132786;27;20019;-67
2021/01/30 06:23:28;;;;;;;0.60;0.30;;;;;;;;;;5133604;27;20114;-67
2021/01/30 06:26:04;;;;;;;0.32;0.32;;;;;;;;;;5133256;27;20521;-67
2021/01/30 06:28:31;;;;;;;0.80;0.50;;;;;;;;;;5133015;27;20031;-67
2021/01/30 06:31:12;;;;;;;0.20;0.20;;;;;;;;;;5132902;27;20019;-67
2021/01/30 06:33:44;;;;;;;0.20;0.20;;;;;;;;;;5133487;27;20031;-67
2021/01/30 06:36:12;;;;;;;1.13;0.30;;;;;;;;;;5132078;27;20111;-67
2021/01/30 06:38:39;;;;;;;0.30;0.30;;;;;;;;;;5132847;27;20019;-67
2021/01/30 06:41:06;;;;;;;0.90;0.52;;;;;;;;;;5115367;27;20149;-67
2021/01/30 06:43:35;;;;;;;0.35;0.30;;;;;;;;;;5112885;28;20027;-67
2021/01/30 06:46:13;;;;;;;0.40;0.30;;;;;;;;;;5111869;28;20028;-67
2021/01/30 06:48:44;;;;;;;0.63;0.40;;;;;;;;;;5112018;28;20028;-67
2021/01/30 06:51:29;;;;;;;0.70;0.70;;;;;;;;;;5111331;28;20035;-67
2021/01/30 06:53:56;;;;;;;2.65;0.95;;;;;;;;;;5112206;28;20035;-67
2021/01/30 06:56:24;;;;;;;0.40;0.40;;;;;;;;;;5111817;28;20015;-67
2021/01/30 06:58:51;;;;;;;0.63;0.63;;;;;;;;;;5111981;28;20027;-67
2021/01/30 07:01:24;;;;;;;0.28;0.28;;;;;;;;;;5111374;28;20039;-67
2021/01/30 07:04:02;;;;;;;0.40;0.40;;;;;;;;;;5112220;28;20035;-67
2021/01/30 07:06:28;;;;;;;0.32;0.32;;;;;;;;;;5127507;27;20151;-67
2021/01/30 07:09:02;;;;;;;0.32;0.32;;;;;;;;;;5132133;27;20023;-67
2021/01/30 07:11:28;;;;;;;;;;;;;;;;;;5117346;27;20035;-67
2021/01/30 07:13:59;;;;;;;0.85;0.70;;;;;;;;;;5111883;28;19931;-67
2021/01/30 07:16:54;;;;;;;0.45;0.43;;;;;;;;;;5112067;28;20016;-67
2021/01/30 07:19:39;;;;;;;0.20;0.20;;;;;;;;;;5021174;28;20042;-67
2021/01/30 07:22:11;;;;;;;0.30;0.30;;;;;;;;;;5110896;28;20567;-67
2021/01/30 07:24:43;;;;;;;0.45;0.45;;;;;;;;;;5112075;28;20536;-67
2021/01/30 07:27:12;;;;;;;1.17;0.40;;;;;;;;;;5111004;28;20028;-67
2021/01/30 07:29:58;;;;;;;0.40;0.30;;;;;;;;;;5111045;28;20173;-67
2021/01/30 07:32:37;;;;;;;0.43;0.40;;;;;;;;;;5111161;28;20051;-67
2021/01/30 07:35:19;;;;;;;1.65;0.30;;;;;;;;;;5110966;28;20031;-67
2021/01/30 07:37:50;;;;;;;0.40;0.40;;;;;;;;;;5111370;28;20080;-67
2021/01/30 07:40:21;;;;;;;0.50;0.30;;;;;;;;;;5110268;28;20534;-67
2021/01/30 07:42:47;;;;;;;0.88;0.68;;;;;;;;;;5111327;28;20036;-67
2021/01/30 07:45:18;;;;;;;0.22;0.22;;;;;;;;;;5123590;27;20023;-67
2021/01/30 07:47:44;;;;;;;1.05;0.60;;;;;;;;;;5131700;27;20106;-67
2021/01/30 07:50:30;;;;;;;0.90;0.60;;;;;;;;;;5130627;27;20437;-67
2021/01/30 07:53:05;;;;;;;0.57;0.50;;;;;;;;;;5131590;27;20034;-67
2021/01/30 07:55:31;;;;;;;0.50;0.50;;;;;;;;;;5131809;27;20023;-67
2021/01/30 07:58:00;;;;;;;0.20;0.20;;;;;;;;;;5131270;27;20035;-67
2021/01/30 08:00:32;;;;;;;1.27;0.38;;;;;;;;;;5130996;27;20492;-67
2021/01/30 08:03:04;;;;;;;1.55;0.40;;;;;;;;;;5131009;27;20026;-67
2021/01/30 08:05:36;;;;;;;1.25;0.77;;;;;;;;;;5131059;27;20040;-67
2021/01/30 08:08:05;;;;;;;0.90;0.60;;;;;;;;;;5130398;27;20023;-67
2021/01/30 08:10:46;;;;;;;0.73;0.73;;;;;;;;;;5131329;27;20473;-67
2021/01/30 08:13:25;;;;;;;0.70;0.52;;;;;;;;;;5130566;27;20438;-67
2021/01/30 08:16:10;;;;;;;0.43;0.43;;;;;;;;;;5128058;27;20039;-67
2021/01/30 08:18:38;;;;;;;0.65;0.65;;;;;;;;;;5110391;28;20099;-67
2021/01/30 08:21:23;;;;;;;1.63;0.50;;;;;;;;;;5109799;28;20054;-67
2021/01/30 08:24:01;;;;;;;0.75;0.50;;;;;;;;;;5110961;28;20024;-67
2021/01/30 08:26:34;;;;;;;0.50;0.50;;;;;;;;;;5110243;28;20034;-67
2021/01/30 08:29:06;;;;;;;1.15;1.05;;;;;;;;;;5109547;28;20115;-67
2021/01/30 08:31:43;;;;;;;5.10;0.75;;;;;;;;;;5110113;28;20077;-67
2021/01/30 08:34:11;;;;;;;0.50;0.50;;;;;;;;;;5109423;28;20521;-67
2021/01/30 08:36:45;;;;;;;0.60;0.60;;;;;;;;;;5109920;28;20023;-67
2021/01/30 08:39:25;;;;;;;0.65;0.65;;;;;;;;;;5109072;28;20074;-67
2021/01/30 08:41:53;;;;;;;0.77;0.40;;;;;;;;;;5110299;28;20062;-67
2021/01/30 08:44:25;;;;;;;0.52;0.47;;;;;;;;;;5109810;28;20043;-67
2021/01/30 08:47:04;;;;;;;2.50;0.82;;;;;;;;;;5110008;28;20397;-67
2021/01/30 08:49:33;;;;;;;0.82;0.50;;;;;;;;;;5109549;28;20023;-67
2021/01/30 08:52:14;;;;;;;0.30;0.30;;;;;;;;;;5109298;28;20035;-67
2021/01/30 08:54:44;;;;;;;0.77;0.60;;;;;;;;;;5128447;28;20401;-67
2021/01/30 08:57:29;;;;;;;0.75;0.73;;;;;;;;;;5129788;28;20447;-67
2021/01/30 08:59:55;;;;;;;0.70;0.70;;;;;;;;;;5130053;28;20102;-67
2021/01/30 09:02:44;;;;;;;0.60;0.60;;;;;;;;;;5128767;28;20053;-67
2021/01/30 09:05:12;;;;;;;0.50;0.50;;;;;;;;;;5115788;27;20047;-67
2021/01/30 09:07:38;;;;;;;0.85;0.60;;;;;;;;;;5129523;28;20035;-67
2021/01/30 09:10:13;;;;;;;0.68;0.50;;;;;;;;;;5128789;28;20031;-67
2021/01/30 09:12:59;;;;;;;0.55;0.50;;;;;;;;;;5129623;28;20440;-67
2021/01/30 09:15:40;;;;;;;2.17;0.77;;;;;;;;;;5129378;28;20439;-67
2021/01/30 09:18:19;;;;;;;0.70;0.70;;;;;;;;;;5128962;28;20046;-67
2021/01/30 09:20:54;;;;;;;1.10;0.55;;;;;;;;;;5115945;28;20081;-67
2021/01/30 09:23:26;;;;;;;0.60;0.60;;;;;;;;;;5108796;28;20050;-67
2021/01/30 09:25:57;;;;;;;0.60;0.60;;;;;;;;;;5108873;28;20172;-67
2021/01/30 09:28:25;;;;;;;0.93;0.47;;;;;;;;;;5110126;28;20408;-67
2021/01/30 09:31:00;;;;;;;0.95;0.70;;;;;;;;;;5111880;28;20016;-67
2021/01/30 09:33:26;;;;;;;0.98;0.60;;;;;;;;;;5112706;28;20470;-67
2021/01/30 09:35:58;;;;;;;0.50;0.50;;;;;;;;;;5112530;28;20031;-67
2021/01/30 09:38:29;;;;;;;0.82;0.60;;;;;;;;;;5112183;28;20020;-67
2021/01/30 09:41:27;;;;;;;1.33;0.55;;;;;;;;;;5112228;28;20023;-67
2021/01/30 09:44:02;;;;;;;0.75;0.30;;;;;;;;;;5057251;28;20525;-67
2021/01/30 09:46:31;;;;;;;0.77;0.63;;;;;;;;;;5112921;28;20023;-67
2021/01/30 09:48:58;;;;;;;1.25;0.80;;;;;;;;;;5112186;28;20080;-67
2021/01/30 09:51:24;;;;;;;0.20;0.20;;;;;;;;;;5112748;28;20511;-67
2021/01/30 09:53:53;;;;;;;0.70;0.70;;;;;;;;;;5113017;28;20043;-67
2021/01/30 09:56:21;;;;;;;0.47;0.38;;;;;;;;;;5112573;28;20028;-67
2021/01/30 09:58:51;;;;;;;1.02;0.40;;;;;;;;;;5112779;28;20032;-67
2021/01/30 10:01:23;;;;;;;0.73;0.70;;;;;;;;;;5111837;28;20104;-67
2021/01/30 10:03:50;;;;;;;0.63;0.50;;;;;;;;;;5112577;28;20106;-67
2021/01/30 10:06:25;;;;;;;0.47;0.35;;;;;;;;;;5126195;27;20047;-67
2021/01/30 10:08:51;;;;;;;0.30;0.30;;;;;;;;;;5132895;27;20031;-67
2021/01/30 10:11:21;;;;;;;0.65;0.45;;;;;;;;;;5118790;27;20027;-67
2021/01/30 10:13:55;;;;;;;0.63;0.40;;;;;;;;;;5112770;28;20039;-67
2021/01/30 10:16:22;;;;;;;0.28;0.28;;;;;;;;;;5111992;28;20103;-67
2021/01/30 10:18:51;;;;;;;0.30;0.30;;;;;;;;;;5112215;28;20039;-67
2021/01/30 10:21:28;;;;;;;0.68;0.55;;;;;;;;;;5111826;28;21177;-67
2021/01/30 10:23:55;;;;;;;0.30;0.30;;;;;;;;;;5112128;28;20024;-67
2021/01/30 10:26:21;;;;;;;0.52;0.50;;;;;;;;;;5112154;28;20023;-67
2021/01/30 10:28:50;;;;;;;0.40;0.40;;;;;;;;;;5112150;28;20084;-67
2021/01/30 10:31:22;;;;;;;0.65;0.40;;;;;;;;;;5111420;28;20031;-67
2021/01/30 10:33:50;;;;;;;1.80;0.50;;;;;;;;;;5112236;28;20053;-67
2021/01/30 10:36:18;;;;;;;0.50;0.40;;;;;;;;;;5110742;28;20066;-67
2021/01/30 10:38:45;;;;;;;0.25;0.25;;;;;;;;;;5111246;28;20119;-67
2021/01/30 10:41:15;;;;;;;0.45;0.40;;;;;;;;;;5110474;28;20038;-67
2021/01/30 10:43:42;;;;;;;0.30;0.30;;;;;;;;;;5112065;28;20022;-67
2021/01/30 10:46:26;;;;;;;0.45;0.43;;;;;;;;;;5131801;27;20035;-67
2021/01/30 10:48:52;;;;;;;0.63;0.30;;;;;;;;;;5132208;27;20042;-67
2021/01/30 10:51:23;;;;;;;1.27;0.50;;;;;;;;;;5131795;27;20027;-67
2021/01/30 10:53:50;;;;;;;0.77;0.77;;;;;;;;;;5132662;27;20072;-67
2021/01/30 10:56:21;;;;;;;1.05;0.50;;;;;;;;;;5131532;27;20031;-67
2021/01/30 10:58:48;;;;;;;0.30;0.30;;;;;;;;;;5131892;27;20061;-67
2021/01/30 11:01:17;;;;;;;0.20;0.20;;;;;;;;;;5131699;27;20027;-67
2021/01/30 11:03:46;;;;;;;0.80;0.52;;;;;;;;;;5132381;27;20028;-67
2021/01/30 11:06:16;;;;;;;0.57;0.30;;;;;;;;;;5130863;27;20172;-67
2021/01/30 11:08:42;;;;;;;0.20;0.20;;;;;;;;;;5131863;27;20031;-67
2021/01/30 11:11:09;;;;;;;0.20;0.20;;;;;;;;;;5131475;27;20497;-67
2021/01/30 11:13:40;;;;;;;0.55;0.55;;;;;;;;;;5131878;27;20035;-67
2021/01/30 11:16:15;;;;;;;0.20;0.20;;;;;;;;;;5125944;27;20015;-67
2021/01/30 11:18:48;;;;;;;0.30;0.25;;;;;;;;;;5111034;28;20108;-67
2021/01/30 11:21:27;;;;;;;0.20;0.20;;;;;;;;;;5110506;28;20031;-67
2021/01/30 11:23:53;;;;;;;0.40;0.40;;;;;;;;;;5111290;28;20106;-67
2021/01/30 11:26:37;;;;;;;1.50;0.30;;;;;;;;;;5110705;28;20039;-67
2021/01/30 11:29:04;;;;;;;4.63;0.40;;;;;;;;;;5110145;28;20039;-67
2021/01/30 11:31:31;;;;;;;0.65;0.50;;;;;;;;;;5110984;28;20099;-67
2021/01/30 11:33:58;;;;;;;0.30;0.30;;;;;;;;;;5110698;28;20103;-67
2021/01/30 11:36:24;;;;;;;0.30;0.30;;;;;;;;;;5110300;28;20200;-67
2021/01/30 11:39:08;;;;;;;0.28;0.28;;;;;;;;;;5110550;28;20039;-67
2021/01/30 11:41:34;;;;;;;0.63;0.63;;;;;;;;;;5110540;28;20023;-67
2021/01/30 11:44:00;;;;;;;0.57;0.35;;;;;;;;;;5110267;28;20038;-67
2021/01/30 11:46:26;;;;;;;0.40;0.40;;;;;;;;;;5110958;28;20024;-67
2021/01/30 11:48:52;;;;;;;0.47;0.45;;;;;;;;;;5110387;28;20028;-67
2021/01/30 11:51:28;;;;;;;0.30;0.30;;;;;;;;;;5109908;28;20062;-67
2021/01/30 11:53:54;;;;;;;0.52;0.52;;;;;;;;;;5122490;27;20039;-67
2021/01/30 11:56:21;;;;;;;0.68;0.68;;;;;;;;;;5130899;27;20037;-67
2021/01/30 11:58:47;;;;;;;1.30;1.17;;;;;;;;;;5130855;27;20053;-67
2021/01/30 12:01:14;;;;;;;0.57;0.50;;;;;;;;;;5130442;27;20541;-67
2021/01/30 12:03:40;;;;;;;0.50;0.40;;;;;;;;;;5131079;27;20023;-67
2021/01/30 12:06:06;;;;;;;0.73;0.73;;;;;;;;;;5129776;27;20072;-67
2021/01/30 12:08:32;;;;;;;0.22;0.22;;;;;;;;;;5130726;27;20019;-67
2021/01/30 12:10:58;;;;;;;0.77;0.45;;;;;;;;;;5130255;27;20465;-67
2021/01/30 12:13:25;;;;;;;0.40;0.35;;;;;;;;;;5120728;27;20036;-67
2021/01/30 12:15:51;;;;;;;0.50;0.50;;;;;;;;;;5109810;28;20035;-67
2021/01/30 12:18:18;;;;;;;0.70;0.40;;;;;;;;;;5109521;28;20051;-67
2021/01/30 12:20:45;;;;;;;0.73;0.52;;;;;;;;;;5110226;28;20031;-67
2021/01/30 12:23:11;;;;;;;0.47;0.47;;;;;;;;;;5109095;28;20035;-67
2021/01/30 12:25:37;;;;;;;1.40;1.02;;;;;;;;;;5110259;28;20027;-67
2021/01/30 12:28:04;;;;;;;1.40;1.10;;;;;;;;;;5108974;28;20042;-67
2021/01/30 12:30:32;;;;;;;1.02;0.60;;;;;;;;;;5109789;28;20028;-67
2021/01/30 12:32:58;;;;;;;1.45;0.95;;;;;;;;;;5109696;28;20039;-67
2021/01/30 12:35:26;;;;;;;0.80;0.75;;;;;;;;;;5109786;28;20476;-67
2021/01/30 12:37:52;;;;;;;1.63;0.80;;;;;;;;;;5110073;28;20020;-67
2021/01/30 12:40:19;;;;;;;0.50;0.50;;;;;;;;;;5118667;28;20034;-67
2021/01/30 12:42:45;;;;;;;2.13;1.20;;;;;;;;;;5130702;28;20126;-67
2021/01/30 12:45:11;;;;;;;0.85;0.60;;;;;;;;;;5129877;28;20034;-67
2021/01/30 12:47:37;;;;;;;0.52;0.52;;;;;;;;;;5130751;28;20099;-67
2021/01/30 12:50:05;;;;;;;1.23;0.90;;;;;;;;;;5129191;28;20080;-67
2021/01/30 12:52:31;;;;;;;0.63;0.60;;;;;;;;;;5130286;28;20460;-67
2021/01/30 12:54:57;;;;;;;0.55;0.55;;;;;;;;;;5130141;28;20031;-67
2021/01/30 12:57:23;;;;;;;0.68;0.50;;;;;;;;;;5130019;28;20023;-67
2021/01/30 12:59:49;;;;;;;1.13;0.90;;;;;;;;;;5130005;28;20037;-67
2021/01/30 13:02:15;;;;;;;1.95;0.77;;;;;;;;;;5129807;27;20114;-67
2021/01/30 13:04:41;;;;;;;0.82;0.68;;;;;;;;;;5133517;27;20038;-67
2021/01/30 13:07:07;;;;;;;0.60;0.60;;;;;;;;;;5133268;27;20031;-67
2021/01/30 13:09:34;;;;;;;1.13;0.50;;;;;;;;;;5133829;27;20115;-68
2021/01/30 13:12:00;;;;;;;0.68;0.40;;;;;;;;;;5133354;27;20034;-67
2021/01/30 13:14:26;;;;;;;0.52;0.43;;;;;;;;;;5134145;27;20034;-67
2021/01/30 13:16:52;;;;;;;0.63;0.60;;;;;;;;;;5134129;27;20389;-67
2021/01/30 13:19:19;;;;;;;1.15;0.60;;;;;;;;;;5133389;27;20679;-67
2021/01/30 13:21:46;;;;;;;0.98;0.82;;;;;;;;;;5133966;27;20023;-68
2021/01/30 13:24:12;;;;;;;0.98;0.57;;;;;;;;;;5133688;27;20111;-67
2021/01/30 13:26:40;;;;;;;1.45;0.73;;;;;;;;;;5134157;27;20471;-68
2021/01/30 13:29:07;;;;;;;1.80;0.50;;;;;;;;;;5133147;27;20103;-67
2021/01/30 13:31:39;;;;;;;0.82;0.70;;;;;;;;;;5134048;27;20100;-67
2021/01/30 13:34:05;;;;;;;1.05;0.95;;;;;;;;;;5133248;27;20077;-67
2021/01/30 13:36:31;;;;;;;1.40;0.70;;;;;;;;;;5133438;27;20109;-67
2021/01/30 13:38:59;;;;;;;1.95;0.85;;;;;;;;;;5133160;27;20034;-67
2021/01/30 13:41:25;;;;;;;2.08;0.80;;;;;;;;;;5133246;27;20019;-67
2021/01/30 13:43:51;;;;;;;1.00;0.60;;;;;;;;;;5133716;27;20023;-67
2021/01/30 13:46:17;;;;;;;0.40;0.40;;;;;;;;;;5133286;27;20065;-67
2021/01/30 13:48:43;;;;;;;0.75;0.75;;;;;;;;;;5133370;27;20031;-67
2021/01/30 13:51:09;;;;;;;0.57;0.57;;;;;;;;;;5132475;27;20398;-67
2021/01/30 13:53:35;;;;;;;0.75;0.75;;;;;;;;;;5133749;27;20096;-67
2021/01/30 13:56:01;;;;;;;2.72;1.00;;;;;;;;;;5132922;27;20497;-67
2021/01/30 13:58:28;;;;;;;0.52;0.52;;;;;;;;;;5133074;27;20497;-67
2021/01/30 14:00:54;;;;;;;0.68;0.60;;;;;;;;;;5133503;27;20508;-67
2021/01/30 14:03:20;;;;;;;0.82;0.80;;;;;;;;;;5132852;27;20236;-66
2021/01/30 14:05:49;;;;;;;1.73;0.90;;;;;;;;;;5132894;27;20039;-67
2021/01/30 14:08:15;;;;;;;0.65;0.50;;;;;;;;;;5132301;27;20589;-67
2021/01/30 14:10:41;;;;;;;0.80;0.80;;;;;;;;;;5132946;27;20023;-67
2021/01/30 14:13:07;;;;;;;0.38;0.38;;;;;;;;;;5132413;27;20041;-67
2021/01/30 14:15:33;;;;;;;1.92;1.08;;;;;;;;;;5131529;27;20023;-67
2021/01/30 14:18:00;;;;;;;0.57;0.50;;;;;;;;;;5111854;28;20096;-67
2021/01/30 14:20:26;;;;;;;0.73;0.73;;;;;;;;;;5112343;28;20063;-67
2021/01/30 14:22:53;;;;;;;1.30;1.20;;;;;;;;;;5112691;28;20024;-67
2021/01/30 14:25:19;;;;;;;0.50;0.50;;;;;;;;;;5111657;28;20074;-67
2021/01/30 14:27:45;;;;;;;0.90;0.60;;;;;;;;;;5111701;28;20027;-67
2021/01/30 14:30:12;;;;;;;1.60;0.93;;;;;;;;;;5111538;28;20024;-67
2021/01/30 14:32:39;;;;;;;0.45;0.45;;;;;;;;;;5112125;28;20047;-67
2021/01/30 14:35:05;;;;;;;0.65;0.40;;;;;;;;;;5111590;28;20027;-67
2021/01/30 14:37:31;;;;;;;0.52;0.43;;;;;;;;;;5111844;28;20101;-67
2021/01/30 14:39:59;;;;;;;0.50;0.50;;;;;;;;;;5111535;28;20019;-67
2021/01/30 14:42:25;;;;;;;0.95;0.95;;;;;;;;;;5112031;28;20043;-67
2021/01/30 14:44:51;;;;;;;1.10;0.63;;;;;;;;;;5112178;28;20027;-67
2021/01/30 14:47:18;;;;;;;0.90;0.63;;;;;;;;;;5110989;28;20036;-67
2021/01/30 14:49:47;;;;;;;0.50;0.50;;;;;;;;;;5111538;28;20065;-67
2021/01/30 14:52:13;;;;;;;0.77;0.52;;;;;;;;;;5111118;28;20036;-67
2021/01/30 14:54:39;;;;;;;0.82;0.47;;;;;;;;;;5130200;27;20062;-67
2021/01/30 14:57:06;;;;;;;0.85;0.60;;;;;;;;;;5131383;27;20481;-67
2021/01/30 14:59:32;;;;;;;0.60;0.60;;;;;;;;;;5132152;27;20027;-67